sensor_id;sensor_type;location;lat;lon;timestamp;pressure;altitude;pressure_sealevel;temperature;humidity
34674;BME280;20879;55.668;37.858;2022-09-09T00:01:49;100482.94;;;5.73;80.80
34674;BME280;20879;55.668;37.858;2022-09-09T00:04:26;100513.25;;;5.92;81.02
34674;BME280;20879;55.668;37.858;2022-09-09T00:07:03;100506.19;;;5.81;80.65
34674;BME280;20879;55.668;37.858;2022-09-09T00:09:43;100517.69;;;6.00;80.69
34674;BME280;20879;55.668;37.858;2022-09-09T00:12:20;100523.78;;;6.05;80.43
34674;BME280;20879;55.668;37.858;2022-09-09T00:15:02;100513.28;;;5.95;80.17
34674;BME280;20879;55.668;37.858;2022-09-09T00:17:38;100526.47;;;6.12;79.45
34674;BME280;20879;55.668;37.858;2022-09-09T00:20:12;100526.47;;;6.14;79.25
34674;BME280;20879;55.668;37.858;2022-09-09T00:22:47;100518.69;;;6.09;79.29
34674;BME280;20879;55.668;37.858;2022-09-09T00:25:26;100515.09;;;6.00;79.67
34674;BME280;20879;55.668;37.858;2022-09-09T00:27:57;100525.47;;;6.06;79.90
34674;BME280;20879;55.668;37.858;2022-09-09T00:30:29;100527.25;;;6.08;80.09
34674;BME280;20879;55.668;37.858;2022-09-09T00:33:03;100534.03;;;6.03;80.12
34674;BME280;20879;55.668;37.858;2022-09-09T00:35:44;100525.44;;;6.03;80.21
34674;BME280;20879;55.668;37.858;2022-09-09T00:38:15;100525.47;;;6.06;79.96
34674;BME280;20879;55.668;37.858;2022-09-09T00:40:50;100532.38;;;6.07;80.18
34674;BME280;20879;55.668;37.858;2022-09-09T00:43:28;100544.44;;;6.11;80.44
34674;BME280;20879;55.668;37.858;2022-09-09T00:46:13;100542.78;;;6.16;79.93
34674;BME280;20879;55.668;37.858;2022-09-09T00:49:08;100530.06;;;6.24;79.27
34674;BME280;20879;55.668;37.858;2022-09-09T00:51:50;100536.03;;;6.21;78.89
34674;BME280;20879;55.668;37.858;2022-09-09T00:54:38;100535.97;;;6.17;79.00
34674;BME280;20879;55.668;37.858;2022-09-09T00:57:25;100541.78;;;6.05;79.62
34674;BME280;20879;55.668;37.858;2022-09-09T01:00:16;100539.00;;;5.95;80.02
34674;BME280;20879;55.668;37.858;2022-09-09T01:02:53;100540.72;;;5.97;80.19
34674;BME280;20879;55.668;37.858;2022-09-09T01:05:33;100543.22;;;5.90;80.38
34674;BME280;20879;55.668;37.858;2022-09-09T01:08:11;100538.91;;;5.89;80.23
34674;BME280;20879;55.668;37.858;2022-09-09T01:10:49;100554.38;;;5.92;80.61
34674;BME280;20879;55.668;37.858;2022-09-09T01:13:27;100552.78;;;5.98;80.33
34674;BME280;20879;55.668;37.858;2022-09-09T01:16:03;100557.84;;;5.94;80.55
34674;BME280;20879;55.668;37.858;2022-09-09T01:18:38;100555.38;;;5.99;80.55
34674;BME280;20879;55.668;37.858;2022-09-09T01:21:16;100552.72;;;5.96;80.55
34674;BME280;20879;55.668;37.858;2022-09-09T01:24:06;100565.69;;;6.01;80.87
34674;BME280;20879;55.668;37.858;2022-09-09T01:27:00;100563.94;;;6.00;80.37
34674;BME280;20879;55.668;37.858;2022-09-09T01:29:36;100566.44;;;5.97;80.39
34674;BME280;20879;55.668;37.858;2022-09-09T01:35:08;100570.16;;;6.11;80.23
34674;BME280;20879;55.668;37.858;2022-09-09T01:37:43;100574.38;;;6.09;80.02
34674;BME280;20879;55.668;37.858;2022-09-09T01:40:12;100547.69;;;6.01;80.09
34674;BME280;20879;55.668;37.858;2022-09-09T01:42:44;100574.47;;;6.12;80.31
34674;BME280;20879;55.668;37.858;2022-09-09T01:45:13;100565.75;;;6.05;80.00
34674;BME280;20879;55.668;37.858;2022-09-09T01:47:43;100577.78;;;6.05;79.83
34674;BME280;20879;55.668;37.858;2022-09-09T01:50:19;100578.66;;;6.07;80.39
34674;BME280;20879;55.668;37.858;2022-09-09T01:52:52;100580.38;;;6.08;80.11
34674;BME280;20879;55.668;37.858;2022-09-09T01:55:32;100580.38;;;6.06;80.53
34674;BME280;20879;55.668;37.858;2022-09-09T01:58:15;100586.34;;;6.05;80.71
34674;BME280;20879;55.668;37.858;2022-09-09T02:00:59;100588.13;;;6.09;80.32
34674;BME280;20879;55.668;37.858;2022-09-09T02:03:32;100591.41;;;6.01;80.35
34674;BME280;20879;55.668;37.858;2022-09-09T02:06:22;100592.25;;;6.01;80.77
34674;BME280;20879;55.668;37.858;2022-09-09T02:09:01;100582.56;;;5.88;81.22
34674;BME280;20879;55.668;37.858;2022-09-09T02:11:33;100597.00;;;5.81;81.59
34674;BME280;20879;55.668;37.858;2022-09-09T02:14:19;100595.28;;;5.80;82.10
34674;BME280;20879;55.668;37.858;2022-09-09T02:16:53;100593.44;;;5.73;82.26
34674;BME280;20879;55.668;37.858;2022-09-09T02:19:37;100598.38;;;5.64;82.38
34674;BME280;20879;55.668;37.858;2022-09-09T02:22:23;100593.94;;;5.55;83.02
34674;BME280;20879;55.668;37.858;2022-09-09T02:24:57;100593.78;;;5.47;83.51
34674;BME280;20879;55.668;37.858;2022-09-09T02:27:30;100603.06;;;5.39;83.85
34674;BME280;20879;55.668;37.858;2022-09-09T02:30:03;100596.00;;;5.27;84.53
34674;BME280;20879;55.668;37.858;2022-09-09T02:32:42;100600.06;;;5.17;84.28
34674;BME280;20879;55.668;37.858;2022-09-09T02:35:17;100619.78;;;5.18;84.81
34674;BME280;20879;55.668;37.858;2022-09-09T02:37:55;100593.84;;;5.07;84.63
34674;BME280;20879;55.668;37.858;2022-09-09T02:40:26;100612.06;;;5.18;84.73
34674;BME280;20879;55.668;37.858;2022-09-09T02:43:00;100623.22;;;5.20;85.00
34674;BME280;20879;55.668;37.858;2022-09-09T02:45:38;100625.16;;;5.31;85.17
34674;BME280;20879;55.668;37.858;2022-09-09T02:48:17;100631.28;;;5.37;84.61
34674;BME280;20879;55.668;37.858;2022-09-09T02:51:00;100627.00;;;5.38;85.16
34674;BME280;20879;55.668;37.858;2022-09-09T02:53:46;100622.78;;;5.41;85.02
34674;BME280;20879;55.668;37.858;2022-09-09T02:56:25;100635.09;;;5.56;83.87
34674;BME280;20879;55.668;37.858;2022-09-09T02:59:04;100640.41;;;5.66;84.03
34674;BME280;20879;55.668;37.858;2022-09-09T03:01:37;100642.97;;;5.66;83.61
34674;BME280;20879;55.668;37.858;2022-09-09T03:04:09;100625.72;;;5.58;83.23
34674;BME280;20879;55.668;37.858;2022-09-09T03:06:39;100643.09;;;5.72;83.11
34674;BME280;20879;55.668;37.858;2022-09-09T03:09:21;100637.78;;;5.63;83.03
34674;BME280;20879;55.668;37.858;2022-09-09T03:11:50;100647.19;;;5.62;83.41
34674;BME280;20879;55.668;37.858;2022-09-09T03:14:28;100649.59;;;5.54;83.40
34674;BME280;20879;55.668;37.858;2022-09-09T03:16:59;100658.06;;;5.50;83.95
34674;BME280;20879;55.668;37.858;2022-09-09T03:19:35;100649.59;;;5.54;83.44
34674;BME280;20879;55.668;37.858;2022-09-09T03:22:09;100654.03;;;5.62;83.56
34674;BME280;20879;55.668;37.858;2022-09-09T03:24:42;100649.91;;;5.70;83.43
34674;BME280;20879;55.668;37.858;2022-09-09T03:27:18;100657.72;;;5.74;83.28
34674;BME280;20879;55.668;37.858;2022-09-09T03:29:48;100654.13;;;5.66;83.77
34674;BME280;20879;55.668;37.858;2022-09-09T03:32:24;100657.53;;;5.65;83.61
34674;BME280;20879;55.668;37.858;2022-09-09T03:35:01;100655.84;;;5.66;83.38
34674;BME280;20879;55.668;37.858;2022-09-09T03:37:30;100661.69;;;5.58;83.50
34674;BME280;20879;55.668;37.858;2022-09-09T03:39:59;100657.34;;;5.56;83.76
34674;BME280;20879;55.668;37.858;2022-09-09T03:42:29;100667.28;;;5.39;84.30
34674;BME280;20879;55.668;37.858;2022-09-09T03:45:07;100673.13;;;5.32;85.35
34674;BME280;20879;55.668;37.858;2022-09-09T03:47:41;100674.56;;;5.20;85.81
34674;BME280;20879;55.668;37.858;2022-09-09T03:50:11;100671.13;;;5.18;85.61
34674;BME280;20879;55.668;37.858;2022-09-09T03:52:45;100684.72;;;5.14;85.67
34674;BME280;20879;55.668;37.858;2022-09-09T03:55:20;100676.31;;;5.21;85.52
34674;BME280;20879;55.668;37.858;2022-09-09T03:57:55;100684.63;;;5.10;86.54
34674;BME280;20879;55.668;37.858;2022-09-09T04:00:24;100688.09;;;5.13;86.52
34674;BME280;20879;55.668;37.858;2022-09-09T04:03:01;100684.91;;;5.23;86.07
34674;BME280;20879;55.668;37.858;2022-09-09T04:05:36;100694.78;;;5.45;85.40
34674;BME280;20879;55.668;37.858;2022-09-09T04:08:06;100688.06;;;5.51;84.75
34674;BME280;20879;55.668;37.858;2022-09-09T04:10:35;100692.38;;;5.52;85.18
34674;BME280;20879;55.668;37.858;2022-09-09T04:13:05;100688.91;;;5.50;85.20
34674;BME280;20879;55.668;37.858;2022-09-09T04:15:39;100691.50;;;5.52;85.34
34674;BME280;20879;55.668;37.858;2022-09-09T04:18:11;100694.19;;;5.56;85.55
34674;BME280;20879;55.668;37.858;2022-09-09T04:20:47;100686.56;;;5.61;85.08
34674;BME280;20879;55.668;37.858;2022-09-09T04:23:20;100691.84;;;5.67;85.02
34674;BME280;20879;55.668;37.858;2022-09-09T04:25:52;100688.56;;;5.74;84.59
34674;BME280;20879;55.668;37.858;2022-09-09T04:28:24;100692.13;;;5.83;84.59
34674;BME280;20879;55.668;37.858;2022-09-09T04:30:54;100695.69;;;5.89;84.46
34674;BME280;20879;55.668;37.858;2022-09-09T04:33:31;100687.25;;;5.95;84.45
34674;BME280;20879;55.668;37.858;2022-09-09T04:36:06;100681.25;;;5.94;83.79
34674;BME280;20879;55.668;37.858;2022-09-09T04:38:36;100693.50;;;6.06;84.08
34674;BME280;20879;55.668;37.858;2022-09-09T04:41:05;100694.44;;;6.11;83.94
34674;BME280;20879;55.668;37.858;2022-09-09T04:43:44;100692.00;;;6.19;83.08
34674;BME280;20879;55.668;37.858;2022-09-09T04:46:15;100699.81;;;6.24;82.83
34674;BME280;20879;55.668;37.858;2022-09-09T04:48:49;100697.47;;;6.38;82.49
34674;BME280;20879;55.668;37.858;2022-09-09T04:51:27;100694.19;;;6.45;82.30
34674;BME280;20879;55.668;37.858;2022-09-09T04:53:58;100705.34;;;6.47;82.06
34674;BME280;20879;55.668;37.858;2022-09-09T04:56:27;100707.91;;;6.47;81.78
34674;BME280;20879;55.668;37.858;2022-09-09T04:58:58;100706.31;;;6.52;81.92
34674;BME280;20879;55.668;37.858;2022-09-09T05:01:43;100717.63;;;6.62;81.37
34674;BME280;20879;55.668;37.858;2022-09-09T05:04:15;100711.69;;;6.68;80.56
34674;BME280;20879;55.668;37.858;2022-09-09T05:06:46;100712.66;;;6.73;80.54
34674;BME280;20879;55.668;37.858;2022-09-09T05:09:15;100717.88;;;6.77;80.42
34674;BME280;20879;55.668;37.858;2022-09-09T05:11:51;100715.38;;;6.82;80.16
34674;BME280;20879;55.668;37.858;2022-09-09T05:14:34;100669.56;;;6.61;79.58
34674;BME280;20879;55.668;37.858;2022-09-09T05:17:05;100724.09;;;6.90;79.56
34674;BME280;20879;55.668;37.858;2022-09-09T05:19:38;100726.81;;;6.99;79.37
34674;BME280;20879;55.668;37.858;2022-09-09T05:22:08;100729.38;;;6.99;79.47
34674;BME280;20879;55.668;37.858;2022-09-09T05:24:43;100719.16;;;7.06;79.09
34674;BME280;20879;55.668;37.858;2022-09-09T05:27:12;100724.47;;;7.15;79.16
34674;BME280;20879;55.668;37.858;2022-09-09T05:29:41;100729.72;;;7.23;78.41
34674;BME280;20879;55.668;37.858;2022-09-09T05:32:12;100729.81;;;7.29;78.60
34674;BME280;20879;55.668;37.858;2022-09-09T05:34:51;100702.16;;;7.15;77.83
34674;BME280;20879;55.668;37.858;2022-09-09T05:37:21;100722.28;;;7.41;75.92
34674;BME280;20879;55.668;37.858;2022-09-09T05:39:50;100727.47;;;7.44;75.61
34674;BME280;20879;55.668;37.858;2022-09-09T05:42:20;100721.38;;;7.39;75.77
34674;BME280;20879;55.668;37.858;2022-09-09T05:44:49;100737.06;;;7.55;75.65
34674;BME280;20879;55.668;37.858;2022-09-09T05:47:20;100738.16;;;7.74;75.22
34674;BME280;20879;55.668;37.858;2022-09-09T05:49:51;100732.09;;;7.72;74.18
34674;BME280;20879;55.668;37.858;2022-09-09T05:52:21;100735.72;;;7.84;73.99
34674;BME280;20879;55.668;37.858;2022-09-09T05:54:54;100731.41;;;7.82;73.74
34674;BME280;20879;55.668;37.858;2022-09-09T05:57:29;100728.97;;;7.94;73.03
34674;BME280;20879;55.668;37.858;2022-09-09T05:59:59;100732.44;;;7.98;72.09
34674;BME280;20879;55.668;37.858;2022-09-09T06:02:41;100705.66;;;7.85;71.62
34674;BME280;20879;55.668;37.858;2022-09-09T06:05:15;100729.03;;;8.00;71.29
34674;BME280;20879;55.668;37.858;2022-09-09T06:07:45;100731.66;;;8.07;70.69
34674;BME280;20879;55.668;37.858;2022-09-09T06:10:15;100739.50;;;8.13;70.61
34674;BME280;20879;55.668;37.858;2022-09-09T06:12:52;100742.97;;;8.18;70.19
34674;BME280;20879;55.668;37.858;2022-09-09T06:15:22;100746.56;;;8.29;69.89
34674;BME280;20879;55.668;37.858;2022-09-09T06:17:56;100736.28;;;8.34;67.91
34674;BME280;20879;55.668;37.858;2022-09-09T06:20:28;100754.41;;;8.40;67.57
34674;BME280;20879;55.668;37.858;2022-09-09T06:22:58;100743.22;;;8.41;67.07
34674;BME280;20879;55.668;37.858;2022-09-09T06:25:33;100756.97;;;8.42;67.12
34674;BME280;20879;55.668;37.858;2022-09-09T06:28:02;100751.81;;;8.42;67.55
34674;BME280;20879;55.668;37.858;2022-09-09T06:30:37;100743.38;;;8.55;66.41
34674;BME280;20879;55.668;37.858;2022-09-09T06:33:18;100759.88;;;8.71;66.29
34674;BME280;20879;55.668;37.858;2022-09-09T06:35:55;100744.56;;;8.91;64.96
34674;BME280;20879;55.668;37.858;2022-09-09T06:38:25;100753.38;;;9.16;64.40
34674;BME280;20879;55.668;37.858;2022-09-09T06:40:55;100757.03;;;9.44;63.17
34674;BME280;20879;55.668;37.858;2022-09-09T06:43:29;100752.72;;;9.47;62.62
34674;BME280;20879;55.668;37.858;2022-09-09T06:46:03;100747.59;;;9.57;61.87
34674;BME280;20879;55.668;37.858;2022-09-09T06:48:33;100727.78;;;9.56;59.48
34674;BME280;20879;55.668;37.858;2022-09-09T06:51:07;100737.34;;;9.73;58.17
34674;BME280;20879;55.668;37.858;2022-09-09T06:53:39;100754.66;;;9.94;57.38
34674;BME280;20879;55.668;37.858;2022-09-09T06:56:22;100760.75;;;10.05;56.82
34674;BME280;20879;55.668;37.858;2022-09-09T06:58:55;100727.16;;;10.18;54.49
34674;BME280;20879;55.668;37.858;2022-09-09T07:01:30;100755.56;;;10.10;53.58
34674;BME280;20879;55.668;37.858;2022-09-09T07:04:04;100736.53;;;9.91;53.36
34674;BME280;20879;55.668;37.858;2022-09-09T07:06:39;100755.47;;;9.84;53.41
34674;BME280;20879;55.668;37.858;2022-09-09T07:09:13;100758.94;;;9.83;54.43
34674;BME280;20879;55.668;37.858;2022-09-09T07:11:47;100783.09;;;9.89;54.95
34674;BME280;20879;55.668;37.858;2022-09-09T07:14:18;100768.50;;;10.02;54.89
34674;BME280;20879;55.668;37.858;2022-09-09T07:16:54;100781.47;;;10.13;53.62
34674;BME280;20879;55.668;37.858;2022-09-09T07:19:30;100762.63;;;10.51;53.30
34674;BME280;20879;55.668;37.858;2022-09-09T07:22:08;100780.78;;;10.70;52.45
34674;BME280;20879;55.668;37.858;2022-09-09T07:24:37;100782.56;;;10.97;52.19
34674;BME280;20879;55.668;37.858;2022-09-09T07:27:06;100778.22;;;11.07;51.76
34674;BME280;20879;55.668;37.858;2022-09-09T07:29:36;100776.47;;;11.38;51.40
34674;BME280;20879;55.668;37.858;2022-09-09T07:32:07;100784.19;;;11.66;50.81
34674;BME280;20879;55.668;37.858;2022-09-09T07:34:37;100785.84;;;11.95;49.88
34674;BME280;20879;55.668;37.858;2022-09-09T07:37:08;100777.19;;;11.91;50.01
34674;BME280;20879;55.668;37.858;2022-09-09T07:39:42;100790.22;;;11.77;50.02
34674;BME280;20879;55.668;37.858;2022-09-09T07:42:12;100784.22;;;11.47;49.24
34674;BME280;20879;55.668;37.858;2022-09-09T07:44:41;100751.41;;;11.17;48.41
34674;BME280;20879;55.668;37.858;2022-09-09T07:47:13;100785.13;;;10.84;48.97
34674;BME280;20879;55.668;37.858;2022-09-09T07:49:50;100808.44;;;10.86;49.00
34674;BME280;20879;55.668;37.858;2022-09-09T07:52:28;100807.59;;;11.19;49.49
34674;BME280;20879;55.668;37.858;2022-09-09T07:55:02;100799.72;;;11.94;48.33
34674;BME280;20879;55.668;37.858;2022-09-09T07:57:38;100808.31;;;12.02;47.57
34674;BME280;20879;55.668;37.858;2022-09-09T08:00:14;100799.69;;;11.95;47.00
34674;BME280;20879;55.668;37.858;2022-09-09T08:02:50;100799.78;;;11.63;47.22
34674;BME280;20879;55.668;37.858;2022-09-09T08:05:21;100779.91;;;11.49;45.81
34674;BME280;20879;55.668;37.858;2022-09-09T08:07:54;100769.59;;;11.03;46.73
34674;BME280;20879;55.668;37.858;2022-09-09T08:10:29;100800.69;;;11.25;46.26
34674;BME280;20879;55.668;37.858;2022-09-09T08:13:00;100804.13;;;11.44;46.38
34674;BME280;20879;55.668;37.858;2022-09-09T08:15:46;100793.63;;;11.85;45.90
34674;BME280;20879;55.668;37.858;2022-09-09T08:18:17;100811.78;;;11.88;45.66
34674;BME280;20879;55.668;37.858;2022-09-09T08:20:46;100810.06;;;11.92;46.39
34674;BME280;20879;55.668;37.858;2022-09-09T08:23:18;100808.38;;;11.74;46.40
34674;BME280;20879;55.668;37.858;2022-09-09T08:25:48;100799.69;;;11.81;46.91
34674;BME280;20879;55.668;37.858;2022-09-09T08:28:17;100797.13;;;11.77;46.49
34674;BME280;20879;55.668;37.858;2022-09-09T08:30:47;100820.53;;;11.58;46.72
34674;BME280;20879;55.668;37.858;2022-09-09T08:33:21;100790.22;;;11.80;46.57
34674;BME280;20879;55.668;37.858;2022-09-09T08:35:51;100808.34;;;11.86;45.79
34674;BME280;20879;55.668;37.858;2022-09-09T08:38:28;100817.75;;;12.26;45.05
34674;BME280;20879;55.668;37.858;2022-09-09T08:41:07;100826.34;;;12.39;44.69
34674;BME280;20879;55.668;37.858;2022-09-09T08:43:40;100828.19;;;12.17;45.47
34674;BME280;20879;55.668;37.858;2022-09-09T08:46:20;100827.38;;;11.99;45.73
34674;BME280;20879;55.668;37.858;2022-09-09T08:49:02;100819.63;;;11.76;46.14
34674;BME280;20879;55.668;37.858;2022-09-09T08:51:34;100826.59;;;11.49;46.81
34674;BME280;20879;55.668;37.858;2022-09-09T08:54:07;100821.38;;;11.60;46.79
34674;BME280;20879;55.668;37.858;2022-09-09T08:56:43;100820.53;;;11.26;47.00
34674;BME280;20879;55.668;37.858;2022-09-09T08:59:17;100818.81;;;10.98;46.92
34674;BME280;20879;55.668;37.858;2022-09-09T09:01:58;100810.19;;;11.04;47.14
34674;BME280;20879;55.668;37.858;2022-09-09T09:04:50;100826.59;;;11.42;46.90
34674;BME280;20879;55.668;37.858;2022-09-09T09:07:33;100815.28;;;11.75;46.33
34674;BME280;20879;55.668;37.858;2022-09-09T09:10:18;100816.97;;;11.88;45.44
34674;BME280;20879;55.668;37.858;2022-09-09T09:13:15;100812.63;;;12.04;45.33
34674;BME280;20879;55.668;37.858;2022-09-09T09:15:53;100820.38;;;12.14;45.20
34674;BME280;20879;55.668;37.858;2022-09-09T09:18:26;100816.81;;;12.41;43.93
34674;BME280;20879;55.668;37.858;2022-09-09T09:21:02;100815.88;;;12.51;44.53
34674;BME280;20879;55.668;37.858;2022-09-09T09:23:46;100803.91;;;12.26;45.36
34674;BME280;20879;55.668;37.858;2022-09-09T09:26:23;100830.78;;;12.12;45.98
34674;BME280;20879;55.668;37.858;2022-09-09T09:28:56;100841.97;;;12.30;46.36
34674;BME280;20879;55.668;37.858;2022-09-09T09:31:27;100829.75;;;12.49;45.69
34674;BME280;20879;55.668;37.858;2022-09-09T09:33:57;100831.56;;;12.34;46.11
34674;BME280;20879;55.668;37.858;2022-09-09T09:36:37;100827.28;;;12.21;46.29
34674;BME280;20879;55.668;37.858;2022-09-09T09:39:09;100835.88;;;12.37;46.99
34674;BME280;20879;55.668;37.858;2022-09-09T09:42:09;100834.72;;;12.87;44.63
34674;BME280;20879;55.668;37.858;2022-09-09T09:44:43;100808.03;;;12.64;43.67
34674;BME280;20879;55.668;37.858;2022-09-09T09:47:20;100825.34;;;12.60;43.35
34674;BME280;20879;55.668;37.858;2022-09-09T09:50:17;100820.94;;;12.76;43.95
34674;BME280;20879;55.668;37.858;2022-09-09T09:52:54;100810.59;;;12.70;43.73
34674;BME280;20879;55.668;37.858;2022-09-09T09:55:28;100825.56;;;12.24;44.87
34674;BME280;20879;55.668;37.858;2022-09-09T09:58:06;100839.50;;;11.96;46.23
34674;BME280;20879;55.668;37.858;2022-09-09T10:00:49;100835.22;;;11.71;46.91
34674;BME280;20879;55.668;37.858;2022-09-09T10:03:29;100836.94;;;11.59;47.07
34674;BME280;20879;55.668;37.858;2022-09-09T10:06:00;100837.78;;;11.67;46.87
34674;BME280;20879;55.668;37.858;2022-09-09T10:08:34;100832.56;;;11.82;44.79
34674;BME280;20879;55.668;37.858;2022-09-09T10:11:22;100827.38;;;11.99;45.73
34674;BME280;20879;55.668;37.858;2022-09-09T10:14:04;100815.22;;;12.06;45.67
34674;BME280;20879;55.668;37.858;2022-09-09T10:16:45;100815.91;;;12.48;45.21
34674;BME280;20879;55.668;37.858;2022-09-09T10:19:29;100833.38;;;12.18;45.76
34674;BME280;20879;55.668;37.858;2022-09-09T10:22:07;100833.41;;;12.03;46.34
34674;BME280;20879;55.668;37.858;2022-09-09T10:27:45;100837.75;;;12.01;46.13
34674;BME280;20879;55.668;37.858;2022-09-09T10:30:30;100803.16;;;11.83;47.36
34674;BME280;20879;55.668;37.858;2022-09-09T10:33:07;100816.16;;;11.82;46.68
34674;BME280;20879;55.668;37.858;2022-09-09T10:35:43;100821.34;;;11.79;47.21
34674;BME280;20879;55.668;37.858;2022-09-09T10:38:16;100831.72;;;11.71;47.00
34674;BME280;20879;55.668;37.858;2022-09-09T10:41:11;100840.38;;;11.82;47.53
34674;BME280;20879;55.668;37.858;2022-09-09T10:44:10;100842.03;;;12.14;47.24
34674;BME280;20879;55.668;37.858;2022-09-09T10:47:02;100821.94;;;12.55;45.98
34674;BME280;20879;55.668;37.858;2022-09-09T10:49:52;100815.00;;;12.57;45.45
34674;BME280;20879;55.668;37.858;2022-09-09T10:52:32;100820.31;;;12.31;46.16
34674;BME280;20879;55.668;37.858;2022-09-09T10:55:10;100833.44;;;11.95;45.48
34674;BME280;20879;55.668;37.858;2022-09-09T10:57:44;100836.88;;;12.02;45.34
34674;BME280;20879;55.668;37.858;2022-09-09T11:00:17;100840.25;;;12.30;45.62
34674;BME280;20879;55.668;37.858;2022-09-09T11:02:54;100824.44;;;12.70;45.13
34674;BME280;20879;55.668;37.858;2022-09-09T11:05:28;100808.78;;;12.83;44.07
34674;BME280;20879;55.668;37.858;2022-09-09T11:08:04;100812.22;;;12.83;43.62
34674;BME280;20879;55.668;37.858;2022-09-09T11:10:39;100825.13;;;12.94;42.92
34674;BME280;20879;55.668;37.858;2022-09-09T11:13:18;100832.13;;;12.87;43.36
34674;BME280;20879;55.668;37.858;2022-09-09T11:15:52;100828.84;;;12.54;43.58
34674;BME280;20879;55.668;37.858;2022-09-09T11:18:29;100842.72;;;12.58;44.25
34674;BME280;20879;55.668;37.858;2022-09-09T11:21:09;100835.75;;;12.58;44.71
34674;BME280;20879;55.668;37.858;2022-09-09T11:23:45;100835.78;;;12.55;45.45
34674;BME280;20879;55.668;37.858;2022-09-09T11:26:20;100835.72;;;12.66;45.21
34674;BME280;20879;55.668;37.858;2022-09-09T11:29:13;100841.81;;;12.62;45.45
34674;BME280;20879;55.668;37.858;2022-09-09T11:32:01;100828.91;;;12.44;46.44
34674;BME280;20879;55.668;37.858;2022-09-09T11:34:53;100827.28;;;12.26;46.78
34674;BME280;20879;55.668;37.858;2022-09-09T11:37:40;100815.16;;;12.26;45.83
34674;BME280;20879;55.668;37.858;2022-09-09T11:40:22;100823.78;;;12.36;45.70
34674;BME280;20879;55.668;37.858;2022-09-09T11:43:04;100846.84;;;12.91;44.61
34674;BME280;20879;55.668;37.858;2022-09-09T11:45:35;100843.22;;;13.09;42.96
34674;BME280;20879;55.668;37.858;2022-09-09T11:48:05;100814.53;;;13.20;42.53
34674;BME280;20879;55.668;37.858;2022-09-09T11:51:03;100822.66;;;12.79;43.69
34674;BME280;20879;55.668;37.858;2022-09-09T11:53:50;100837.41;;;12.72;43.39
34674;BME280;20879;55.668;37.858;2022-09-09T11:56:42;100845.34;;;12.44;44.41
34674;BME280;20879;55.668;37.858;2022-09-09T11:59:21;100859.31;;;12.24;45.03
34674;BME280;20879;55.668;37.858;2022-09-09T12:01:55;100829.97;;;12.01;45.59
34674;BME280;20879;55.668;37.858;2022-09-09T12:04:37;100842.94;;;11.82;46.35
34674;BME280;20879;55.668;37.858;2022-09-09T12:07:34;100836.06;;;11.72;47.03
34674;BME280;20879;55.668;37.858;2022-09-09T12:10:20;100839.56;;;11.51;47.64
34674;BME280;20879;55.668;37.858;2022-09-09T12:12:50;100830.03;;;11.37;48.11
34674;BME280;20879;55.668;37.858;2022-09-09T12:15:26;100826.63;;;11.20;48.39
34674;BME280;20879;55.668;37.858;2022-09-09T12:17:57;100841.28;;;11.18;49.05
34674;BME280;20879;55.668;37.858;2022-09-09T12:20:34;100830.91;;;11.19;48.32
34674;BME280;20879;55.668;37.858;2022-09-09T12:23:27;100827.47;;;11.19;47.41
34674;BME280;20879;55.668;37.858;2022-09-09T12:26:12;100832.66;;;11.11;47.60
34674;BME280;20879;55.668;37.858;2022-09-09T12:28:55;100831.78;;;11.09;47.71
34674;BME280;20879;55.668;37.858;2022-09-09T12:31:35;100843.88;;;11.10;48.01
34674;BME280;20879;55.668;37.858;2022-09-09T12:34:30;100817.09;;;11.19;47.63
34674;BME280;20879;55.668;37.858;2022-09-09T12:37:14;100806.72;;;11.17;47.73
34674;BME280;20879;55.668;37.858;2022-09-09T12:39:50;100828.34;;;11.36;46.78
34674;BME280;20879;55.668;37.858;2022-09-09T12:42:22;100839.53;;;11.43;46.62
34674;BME280;20879;55.668;37.858;2022-09-09T12:44:55;100803.22;;;11.48;45.04
34674;BME280;20879;55.668;37.858;2022-09-09T12:47:32;100825.69;;;11.66;44.37
34674;BME280;20879;55.668;37.858;2022-09-09T12:56:58;100832.59;;;11.78;44.17
34674;BME280;20879;55.668;37.858;2022-09-09T12:59:38;100829.13;;;11.71;43.90
34674;BME280;20879;55.668;37.858;2022-09-09T13:02:18;100799.75;;;11.57;44.95
34674;BME280;20879;55.668;37.858;2022-09-09T13:04:52;100824.84;;;11.70;44.72
34674;BME280;20879;55.668;37.858;2022-09-09T13:07:22;100822.22;;;11.62;44.00
34674;BME280;20879;55.668;37.858;2022-09-09T13:09:51;100830.06;;;11.42;44.66
34674;BME280;20879;55.668;37.858;2022-09-09T13:12:23;100827.47;;;11.30;44.79
34674;BME280;20879;55.668;37.858;2022-09-09T13:14:54;100834.41;;;11.20;44.88
34674;BME280;20879;55.668;37.858;2022-09-09T13:17:25;100837.84;;;11.14;45.03
34674;BME280;20879;55.668;37.858;2022-09-09T13:19:56;100837.84;;;11.17;45.81
34674;BME280;20879;55.668;37.858;2022-09-09T13:22:34;100825.72;;;11.21;45.07
34674;BME280;20879;55.668;37.858;2022-09-09T13:25:19;100828.31;;;11.47;44.95
34674;BME280;20879;55.668;37.858;2022-09-09T13:27:58;100836.09;;;11.40;44.55
34674;BME280;20879;55.668;37.858;2022-09-09T13:30:34;100813.66;;;11.25;45.05
34674;BME280;20879;55.668;37.858;2022-09-09T13:33:21;100831.78;;;11.40;45.31
34674;BME280;20879;55.668;37.858;2022-09-09T13:36:00;100835.25;;;11.47;45.27
34674;BME280;20879;55.668;37.858;2022-09-09T13:38:32;100837.81;;;11.58;45.38
34674;BME280;20879;55.668;37.858;2022-09-09T13:41:19;100815.31;;;11.66;44.68
34674;BME280;20879;55.668;37.858;2022-09-09T13:43:52;100805.78;;;11.72;44.34
34674;BME280;20879;55.668;37.858;2022-09-09T13:46:26;100828.28;;;11.72;43.80